Terminal Aerodrome Forecast
Issued by NWS

Home | Current Version | Previous Version | Text Only | Print | Product List | Glossary On
Versions: 1 2 3 4 5 6 7 8 9 10 11 12 13 14 15 16 17 18 19 20 21 22 23 24
734
FTUS44 KBMX 211140
TAFMGM
TAF
KMGM 211140Z 2112/2212 11009KT 5SM RA BKN035 OVC070
     FM211600 14007KT 4SM -SHRA OVC025
      TEMPO 2116/2120 2SM SHRA BR OVC015
     FM212000 11005KT 4SM SHRA BR OVC008
     FM220600 09003KT 4SM BR OVC007=

USA.gov is the U.S. government's official web portal to all federal, state and local government web resources and services.